To NAV CANADA Home Page Login to a new session Search on AWWS site Disclaimer Vers la page française équivalente Tips FAQ What's new on the site To the Forecasts and Observations / NOTAM section To "File a Flight Plan" website Publications and other links Update of the User's profile FIC Telephone Numbers My Weather Data Folder Route Weather Data Regional Weather Data Local Weather Data To the Forecasts and Observations / NOTAM section
Request Generated 04/24/2019 at 16:22:07 UTC . Weather information available at that time is displayed.

METAR/TAF

WINDSOR/ON    (show WxCam)

METAR CYQG 241600Z AUTO 00000KT 9SM CLR 10/02 A3003 RMK SLP173=
METAR CYQG 241500Z AUTO VRB02KT 9SM CLR 08/02 A3005 RMK SLP179=
METAR CYQG 241400Z AUTO 01004KT 270V030 9SM CLR 08/02 A3005 RMK SLP179=

TAF CYQG 241138Z 2412/2512 32005KT P6SM FEW020 TEMPO 2412/2413 BKN020
FM242000 20007KT P6SM BKN250
FM250200 12005KT P6SM BKN160
FM251000 14010KT P6SM OVC060
RMK FCST BASED ON AUTO OBS. NXT FCST BY 241800Z=
Your time UTC time
Weather data provided by Environment Canada and NAV CANADA